Time;durP1;ratioP1;P1;durP2;ratioP2;P2;SDS_P1;SDS_P2;PMS_P1;PMS_P2;Temp;Humidity;BMP_temperature;BMP_pressure;BME280_temperature;BME280_humidity;BME280_pressure;Samples;Min_cycle;Max_cycle;Signal;HPM_P1;HPM_P2
2021/04/26 00:00:27;;;;;;;5.70;3.25;;;;;;;4.39;65.90;100149.73;1757902;81;21355;-70
2021/04/26 00:02:57;;;;;;;4.58;2.77;;;;;;;4.39;63.48;100164.06;1757764;80;21179;-70
2021/04/26 00:05:27;;;;;;;8.13;2.87;;;;;;;4.40;62.57;100169.73;1757915;81;21650;-70
2021/04/26 00:07:55;;;;;;;5.53;2.70;;;;;;;4.43;63.01;100166.22;1757545;81;21156;-70
2021/04/26 00:10:24;;;;;;;4.05;2.20;;;;;;;4.43;62.37;100174.89;1757706;81;21590;-71
2021/04/26 00:12:53;;;;;;;6.62;2.70;;;;;;;4.43;62.96;100176.20;1757737;81;21658;-69
2021/04/26 00:15:26;;;;;;;5.12;2.62;;;;;;;4.41;64.33;100177.51;1753433;81;21207;-70
2021/04/26 00:17:56;;;;;;;4.37;2.35;;;;;;;4.37;65.51;100175.84;1757491;81;21212;-70
2021/04/26 00:20:27;;;;;;;4.05;2.40;;;;;;;4.35;65.42;100180.66;1748872;81;21559;-71
2021/04/26 00:22:57;;;;;;;4.35;2.20;;;;;;;4.30;65.97;100191.55;1745423;82;21198;-70
2021/04/26 00:25:26;;;;;;;5.43;1.97;;;;;;;4.29;65.82;100185.47;1745876;82;21448;-70
2021/04/26 00:27:54;;;;;;;4.47;1.90;;;;;;;4.26;65.90;100182.91;1745493;82;21199;-70
2021/04/26 00:30:24;;;;;;;4.45;2.10;;;;;;;4.22;66.67;100183.81;1745726;82;21192;-70
2021/04/26 00:32:53;;;;;;;4.35;2.42;;;;;;;4.20;67.25;100193.39;1745346;82;21202;-71
2021/04/26 00:35:22;;;;;;;5.35;1.90;;;;;;;4.16;66.90;100189.08;1745420;82;21127;-71
2021/04/26 00:37:53;;;;;;;4.90;1.87;;;;;;;4.11;67.25;100190.88;1745275;82;21338;-72
2021/04/26 00:40:21;;;;;;;3.67;2.12;;;;;;;4.08;68.04;100189.61;1745252;82;21210;-72
2021/04/26 00:42:51;;;;;;;4.33;2.30;;;;;;;4.05;68.17;100194.83;1745399;82;21214;-70
2021/04/26 00:45:24;;;;;;;2.67;1.77;;;;;;;4.03;69.23;100195.31;1745301;82;21147;-71
2021/04/26 00:47:52;;;;;;;4.42;2.20;;;;;;;4.02;69.67;100201.38;1748789;81;21143;-72
2021/04/26 00:50:25;;;;;;;6.50;2.23;;;;;;;4.03;70.65;100205.73;1750700;81;22837;-71
2021/04/26 00:52:54;;;;;;;2.47;2.00;;;;;;;4.02;70.13;100200.08;1750488;81;21651;-72
2021/04/26 00:55:32;;;;;;;5.37;2.00;;;;;;;3.95;69.50;100192.75;1750422;81;21178;-71
2021/04/26 00:58:01;;;;;;;2.55;1.72;;;;;;;3.91;72.20;100188.44;1750372;81;21071;-70
2021/04/26 01:00:30;;;;;;;3.50;2.12;;;;;;;3.84;72.78;100188.93;1750568;81;21179;-71
2021/04/26 01:03:00;;;;;;;3.35;2.02;;;;;;;3.78;73.16;100189.00;1750413;81;21426;-71
2021/04/26 01:05:31;;;;;;;3.97;1.83;;;;;;;3.70;73.17;100188.19;1750323;81;21199;-71
2021/04/26 01:08:00;;;;;;;3.45;1.92;;;;;;;3.64;73.84;100186.95;1749900;82;21641;-71
2021/04/26 01:10:39;;;;;;;5.97;2.30;;;;;;;3.63;74.43;100185.20;1844868;76;24786;-70
2021/04/26 01:13:41;;;;;;;7.10;2.60;;;;;;;3.49;74.85;100178.36;1815416;78;21167;-70
2021/04/26 01:16:36;;;;;;;4.83;2.55;;;;;;;3.41;75.50;100177.57;1815830;78;22292;-70
2021/04/26 01:20:01;;;;;;;5.50;3.02;;;;;;;3.24;75.78;100167.25;1815523;79;21163;-70
2021/04/26 01:23:13;;;;;;;4.97;2.80;;;;;;;3.09;77.14;100150.01;1815703;79;21159;-71
2021/04/26 01:25:42;;;;;;;;;;;;;;;2.90;78.21;100148.41;1818272;78;21159;-70
2021/04/26 01:28:25;;;;;;;5.42;2.72;;;;;;;2.76;78.41;100151.48;1815537;79;20343;-71
2021/04/26 01:31:10;;;;;;;6.28;2.70;;;;;;;2.69;78.92;100153.25;1779970;79;21348;-70
2021/04/26 01:33:47;;;;;;;6.78;3.05;;;;;;;2.60;79.98;100158.08;1783029;80;21214;-70
2021/04/26 01:36:21;;;;;;;8.95;2.77;;;;;;;2.61;79.70;100157.63;1783374;80;21159;-70
2021/04/26 01:38:55;;;;;;;5.45;3.35;;;;;;;2.63;79.77;100146.35;1783351;80;21150;-71
2021/04/26 01:41:25;;;;;;;5.47;3.17;;;;;;;2.63;79.77;100146.35;1783740;80;21634;-72
2021/04/26 01:43:53;;;;;;;7.72;4.08;;;;;;;2.65;79.71;100140.71;1783426;80;21159;-72
2021/04/26 01:46:23;;;;;;;7.00;3.80;;;;;;;2.60;80.30;100121.67;1783364;80;21206;-72
2021/04/26 01:48:53;;;;;;;8.10;2.85;;;;;;;2.59;80.38;100134.23;1783461;80;21147;-73
2021/04/26 01:51:21;;;;;;;6.17;3.50;;;;;;;2.61;80.61;100132.93;1753351;80;21183;-71
2021/04/26 01:53:50;;;;;;;8.98;3.83;;;;;;;2.60;80.50;100130.77;1783275;79;21134;-71
2021/04/26 01:56:19;;;;;;;8.38;3.98;;;;;;;2.61;80.68;100130.33;1783436;80;21363;-72
2021/04/26 01:58:50;;;;;;;;;;;;;;;2.58;80.45;100128.61;1786170;80;21143;-73
2021/04/26 02:01:22;;;;;;;7.60;4.17;;;;;;;2.60;80.99;100132.08;1783754;79;20284;-71
2021/04/26 02:03:55;;;;;;;8.10;3.72;;;;;;;2.60;81.19;100125.58;1783372;79;21159;-72
2021/04/26 02:06:40;;;;;;;6.97;3.85;;;;;;;2.60;81.00;100121.67;1782906;80;21193;-72
2021/04/26 02:09:28;;;;;;;8.28;4.25;;;;;;;2.59;81.04;100119.93;1782199;79;21441;-71
2021/04/26 02:12:09;;;;;;;8.30;4.20;;;;;;;2.59;81.04;100119.93;1737468;82;21242;-73
2021/04/26 02:14:40;;;;;;;13.83;3.67;;;;;;;2.62;81.52;100113.84;1740595;82;21182;-73
2021/04/26 02:17:08;;;;;;;5.85;3.37;;;;;;;2.61;81.62;100107.79;1740370;82;21358;-72
2021/04/26 02:19:40;;;;;;;7.45;3.52;;;;;;;2.62;81.62;100110.84;1740496;82;22084;-72
2021/04/26 02:22:10;;;;;;;9.40;5.03;;;;;;;2.63;80.73;100116.45;1739736;82;21514;-71
2021/04/26 02:24:54;;;;;;;8.33;5.50;;;;;;;2.69;80.80;100129.44;1829141;76;28430;-71
2021/04/26 02:27:23;;;;;;;11.00;5.45;;;;;;;2.69;80.59;100124.23;1815855;79;22206;-73
2021/04/26 02:29:52;;;;;;;8.80;5.12;;;;;;;2.71;80.19;100121.60;1783719;79;21455;-72
2021/04/26 02:32:49;;;;;;;5.58;3.77;;;;;;;2.70;80.06;100118.14;1790166;79;21574;-72
2021/04/26 02:35:33;;;;;;;6.58;3.80;;;;;;;2.70;80.17;100122.48;1772864;80;21570;-72
2021/04/26 02:38:07;;;;;;;5.70;3.10;;;;;;;2.62;80.21;100116.03;1782649;80;21433;-71
2021/04/26 02:40:48;;;;;;;6.55;2.87;;;;;;;2.55;80.67;100103.91;1751533;80;21142;-72
2021/04/26 02:43:18;;;;;;;7.87;4.42;;;;;;;2.54;80.60;100097.00;1783649;80;21605;-71
2021/04/26 02:45:53;;;;;;;11.75;4.05;;;;;;;2.47;80.83;100089.66;1783169;80;21182;-70
2021/04/26 02:48:22;;;;;;;8.48;3.83;;;;;;;2.48;81.35;100095.71;1782980;80;21197;-71
2021/04/26 02:50:54;;;;;;;9.63;4.22;;;;;;;2.47;81.36;100087.50;1753003;80;21186;-71
2021/04/26 02:53:27;;;;;;;7.65;3.55;;;;;;;2.48;81.72;100090.52;1783362;78;21209;-71
2021/04/26 02:56:08;;;;;;;9.20;3.60;;;;;;;2.42;81.99;100083.63;1753003;80;22296;-71
2021/04/26 02:58:38;;;;;;;7.40;3.58;;;;;;;2.36;82.17;100084.94;1783594;80;21162;-71
2021/04/26 03:01:08;;;;;;;8.70;3.77;;;;;;;2.36;82.17;100084.94;1781930;78;21237;-71
2021/04/26 03:03:53;;;;;;;6.67;3.55;;;;;;;2.31;82.33;100071.97;1748175;80;21590;-70
2021/04/26 03:06:23;;;;;;;8.58;3.70;;;;;;;2.23;82.71;100056.86;1753241;80;21178;-72
2021/04/26 03:08:57;;;;;;;9.13;3.62;;;;;;;2.15;83.29;100041.72;1778681;80;21224;-72
2021/04/26 03:11:27;;;;;;;12.65;3.30;;;;;;;2.11;84.00;100032.20;1783405;80;21197;-72
2021/04/26 03:13:59;;;;;;;7.35;3.30;;;;;;;2.04;84.71;100024.02;1783607;80;21187;-72
2021/04/26 03:16:29;;;;;;;5.20;2.90;;;;;;;1.96;84.88;100023.20;1783289;80;21250;-72
2021/04/26 03:18:57;;;;;;;8.55;3.08;;;;;;;1.92;85.24;100031.86;1780131;80;21170;-72
2021/04/26 03:21:25;;;;;;;5.83;3.25;;;;;;;1.89;85.51;100029.70;1779793;80;21812;-70
2021/04/26 03:23:55;;;;;;;6.10;3.25;;;;;;;1.86;85.77;100023.23;1782127;80;21230;-73
2021/04/26 03:26:24;;;;;;;7.35;3.40;;;;;;;1.82;85.94;100031.89;1785219;80;21200;-72
2021/04/26 03:28:51;;;;;;;6.37;3.30;;;;;;;1.80;86.17;100036.22;1784453;80;21192;-74
2021/04/26 03:31:20;;;;;;;7.33;3.27;;;;;;;1.78;86.25;100037.09;1775786;79;21169;-73
2021/04/26 03:33:58;;;;;;;5.03;3.20;;;;;;;1.83;86.46;100045.73;1834484;78;22559;-72
2021/04/26 03:36:26;;;;;;;5.12;2.98;;;;;;;1.79;86.63;100052.66;1801882;79;21048;-71
2021/04/26 03:38:55;;;;;;;7.70;3.60;;;;;;;1.80;86.86;100064.78;1806841;79;21804;-71
2021/04/26 03:41:23;;;;;;;6.15;2.85;;;;;;;1.77;86.63;100064.80;1802092;79;21210;-72
2021/04/26 03:43:52;;;;;;;5.45;3.02;;;;;;;1.75;86.72;100068.24;1806807;79;21084;-72
2021/04/26 03:46:23;;;;;;;8.15;3.08;;;;;;;1.73;86.83;100068.27;1784516;79;22208;-74
2021/04/26 03:49:09;;;;;;;9.90;3.72;;;;;;;1.72;87.03;100063.92;1790230;79;21182;-79
2021/04/26 03:51:43;;;;;;;6.85;3.33;;;;;;;1.73;87.22;100059.18;1785017;79;21455;-72
2021/04/26 03:54:29;;;;;;;6.47;3.12;;;;;;;1.74;87.35;100053.10;1773656;80;21194;-74
2021/04/26 03:56:57;;;;;;;9.70;3.65;;;;;;;1.76;87.36;100053.97;1774433;80;21207;-74
2021/04/26 03:59:26;;;;;;;9.13;4.25;;;;;;;1.76;87.35;100052.67;1773324;80;21615;-74
2021/04/26 04:01:54;;;;;;;6.62;3.45;;;;;;;1.81;87.29;100050.92;1745935;80;21223;-75
2021/04/26 04:04:23;;;;;;;6.47;3.92;;;;;;;1.83;87.22;100051.78;1775184;80;21369;-73
2021/04/26 04:06:55;;;;;;;9.43;4.83;;;;;;;1.86;87.28;100047.91;1773586;79;21656;-79
2021/04/26 04:09:26;;;;;;;9.77;4.77;;;;;;;1.86;86.97;100046.61;1775239;80;21175;-77
2021/04/26 04:12:08;;;;;;;11.20;4.08;;;;;;;1.88;86.98;100051.77;1758657;80;21872;-73
2021/04/26 04:14:37;;;;;;;9.10;4.40;;;;;;;1.87;86.79;100066.50;1770943;80;21210;-76
2021/04/26 04:17:07;;;;;;;11.95;4.67;;;;;;;1.89;86.86;100074.30;1774951;80;21630;-76
2021/04/26 04:19:35;;;;;;;9.95;4.90;;;;;;;1.92;86.75;100070.81;1770050;80;21124;-75
2021/04/26 04:22:05;;;;;;;7.67;4.17;;;;;;;1.94;86.50;100071.69;1768239;81;21264;-75
2021/04/26 04:24:33;;;;;;;10.15;5.17;;;;;;;1.97;86.49;100071.66;1768873;81;21184;-76
2021/04/26 04:27:00;;;;;;;6.28;3.85;;;;;;;2.01;86.71;100066.89;1729968;80;21207;-76
2021/04/26 04:29:29;;;;;;;8.05;4.03;;;;;;;2.06;86.69;100063.40;1775830;80;21650;-76
2021/04/26 04:32:12;;;;;;;6.37;3.80;;;;;;;2.16;86.28;100066.82;1850153;77;23365;-76
2021/04/26 04:34:49;;;;;;;6.20;3.60;;;;;;;2.15;86.26;100065.55;1748657;82;21203;-75
2021/04/26 04:37:35;;;;;;;7.28;3.75;;;;;;;2.29;85.90;100064.61;1817981;78;21174;-75
2021/04/26 04:40:23;;;;;;;5.03;3.50;;;;;;;2.29;85.90;100064.61;1779213;80;21207;-73
2021/04/26 04:42:58;;;;;;;7.87;3.45;;;;;;;2.38;86.13;100048.12;1817596;78;21178;-77
2021/04/26 04:45:28;;;;;;;6.60;3.50;;;;;;;2.47;85.79;100052.41;1779139;80;21138;-76
2021/04/26 04:48:15;;;;;;;6.53;3.83;;;;;;;2.50;85.01;100048.48;1818242;78;21194;-76
2021/04/26 04:50:46;;;;;;;;;;;;;;;2.55;84.74;100048.02;1781855;80;21988;-75
2021/04/26 04:53:14;;;;;;;7.17;4.33;;;;;;;2.58;84.34;100054.52;1743060;82;20273;-76
2021/04/26 04:55:41;;;;;;;11.45;6.58;;;;;;;2.68;83.91;100061.82;1819703;78;21170;-75
2021/04/26 04:58:10;;;;;;;7.75;4.17;;;;;;;2.68;83.91;100061.82;1819632;78;21194;-75
2021/04/26 05:00:37;;;;;;;7.00;3.92;;;;;;;2.73;83.67;100057.45;1792076;78;21144;-76
2021/04/26 05:03:25;;;;;;;7.22;4.40;;;;;;;2.83;84.12;100058.25;1784165;78;42296;-76
2021/04/26 05:06:13;;;;;;;5.75;3.90;;;;;;;2.90;83.94;100057.36;1752305;80;21212;-76
2021/04/26 05:08:59;;;;;;;5.15;3.95;;;;;;;2.97;83.49;100070.75;1743391;81;21198;-75
2021/04/26 05:11:49;;;;;;;7.05;4.10;;;;;;;3.04;83.45;100072.42;1741540;81;21127;-75
2021/04/26 05:14:25;;;;;;;5.58;3.60;;;;;;;3.07;83.12;100072.39;1734464;81;21146;-76
2021/04/26 05:16:57;;;;;;;5.53;3.40;;;;;;;3.12;83.12;100073.22;1733797;81;21423;-75
2021/04/26 05:19:25;;;;;;;;;;;;;;;3.15;83.11;100062.80;1738136;81;21194;-74
2021/04/26 05:21:53;;;;;;;6.85;3.22;;;;;;;3.23;82.96;100057.97;1710374;81;20604;-76
2021/04/26 05:24:21;;;;;;;6.75;3.58;;;;;;;3.24;81.71;100051.88;1739674;81;21163;-77
2021/04/26 05:26:50;;;;;;;5.83;3.55;;;;;;;3.20;81.12;100050.17;1739316;81;21186;-76
2021/04/26 05:29:18;;;;;;;4.95;3.20;;;;;;;3.21;81.00;100049.31;1744032;81;21403;-76
2021/04/26 05:31:47;;;;;;;4.00;2.50;;;;;;;3.23;81.63;100050.16;1769372;80;21186;-76
2021/04/26 05:34:16;;;;;;;6.35;3.12;;;;;;;3.29;81.51;100055.30;1741265;81;21649;-76
2021/04/26 05:36:51;;;;;;;4.85;2.90;;;;;;;3.36;81.70;100060.91;1804392;77;21157;-76
2021/04/26 05:39:19;;;;;;;4.97;2.42;;;;;;;3.42;81.81;100060.83;1815974;77;21570;-76
2021/04/26 05:41:47;;;;;;;5.58;2.85;;;;;;;3.49;81.65;100063.80;1793171;78;21649;-75
2021/04/26 05:44:16;;;;;;;4.83;2.60;;;;;;;3.55;81.41;100061.59;1781910;79;21195;-76
2021/04/26 05:46:46;;;;;;;7.77;3.30;;;;;;;3.61;81.55;100064.11;1812226;79;21146;-74
2021/04/26 05:49:15;;;;;;;4.60;2.30;;;;;;;3.65;81.56;100068.42;1777180;79;21873;-75
2021/04/26 05:51:44;;;;;;;4.85;2.40;;;;;;;3.74;81.22;100068.78;1812035;77;21166;-77
2021/04/26 05:54:13;;;;;;;9.68;3.15;;;;;;;3.80;81.00;100055.70;1751976;80;21398;-77
2021/04/26 05:56:41;;;;;;;6.30;2.62;;;;;;;3.84;81.09;100048.25;1778918;80;21134;-78
2021/04/26 05:59:08;;;;;;;4.67;2.40;;;;;;;3.91;80.94;100046.03;1748947;80;21178;-78
2021/04/26 06:01:38;;;;;;;3.52;2.30;;;;;;;4.01;80.28;100049.83;1780452;79;21595;-78
2021/04/26 06:04:06;;;;;;;3.33;2.30;;;;;;;4.10;80.43;100044.52;1749171;82;21149;-78
2021/04/26 06:06:34;;;;;;;5.65;2.40;;;;;;;4.23;80.90;100048.67;1781741;79;22620;-78
2021/04/26 06:09:03;;;;;;;5.42;2.45;;;;;;;4.32;80.45;100053.77;1746822;80;21194;-79
2021/04/26 06:11:31;;;;;;;4.22;2.30;;;;;;;4.44;80.94;100041.04;1747824;80;21737;-78
2021/04/26 06:13:59;;;;;;;3.72;2.20;;;;;;;4.57;80.73;100039.11;1782150;79;21170;-79
2021/04/26 06:16:26;;;;;;;5.15;3.27;;;;;;;4.72;79.90;100038.91;1726810;81;21146;-79
2021/04/26 06:18:54;;;;;;;3.83;2.80;;;;;;;4.85;78.40;100042.17;1758205;79;22271;-78
2021/04/26 06:21:22;;;;;;;7.80;2.85;;;;;;;4.94;77.65;100042.48;1757652;81;21235;-78
2021/04/26 06:23:51;;;;;;;4.42;2.55;;;;;;;5.02;76.56;100043.24;1728738;81;21799;-78
2021/04/26 06:26:19;;;;;;;5.25;2.35;;;;;;;5.12;76.35;100038.28;1752566;81;21216;-78
2021/04/26 06:28:47;;;;;;;4.25;2.15;;;;;;;5.25;75.96;100047.64;1728633;81;21249;-78
2021/04/26 06:31:16;;;;;;;4.08;2.60;;;;;;;5.33;75.23;100033.59;1749648;81;21373;-79
2021/04/26 06:33:44;;;;;;;6.15;2.47;;;;;;;5.41;75.34;100036.95;1723510;81;21158;-78
2021/04/26 06:36:14;;;;;;;4.75;2.90;;;;;;;5.47;74.88;100038.13;1773818;79;21719;-80
2021/04/26 06:38:43;;;;;;;4.25;2.45;;;;;;;5.55;74.75;100041.48;1779963;80;21465;-79
2021/04/26 06:41:12;;;;;;;18.75;3.30;;;;;;;5.70;74.43;100046.00;1780457;80;21729;-78
2021/04/26 06:43:40;;;;;;;10.05;2.90;;;;;;;5.84;72.97;100043.98;1780524;80;21370;-74
2021/04/26 06:46:08;;;;;;;6.08;2.70;;;;;;;6.03;73.63;100038.86;1780673;79;21136;-76
2021/04/26 06:48:37;;;;;;;5.80;2.40;;;;;;;6.26;72.06;100046.23;1781036;80;21144;-79
2021/04/26 06:51:05;;;;;;;2.85;2.00;;;;;;;6.43;70.05;100038.48;1767245;80;21189;-80
2021/04/26 06:53:33;;;;;;;3.12;1.90;;;;;;;6.54;69.58;100033.03;1793121;78;21414;-79
2021/04/26 06:56:02;;;;;;;3.05;2.30;;;;;;;6.63;67.48;100038.05;1798491;79;21771;-82
2021/04/26 06:58:29;;;;;;;7.17;2.42;;;;;;;6.76;67.80;100038.62;1797551;79;21172;-80
2021/04/26 07:00:57;;;;;;;5.53;2.50;;;;;;;6.96;67.76;100035.55;1803972;79;21622;-80
2021/04/26 07:03:26;;;;;;;5.87;2.12;;;;;;;7.22;67.54;100034.45;1798716;79;21148;-80
2021/04/26 07:05:54;;;;;;;7.53;2.52;;;;;;;7.40;65.40;100039.69;1777868;80;21145;-80
2021/04/26 07:08:23;;;;;;;6.53;2.52;;;;;;;7.54;65.94;100035.40;1781904;80;21161;-80
2021/04/26 07:10:51;;;;;;;3.52;2.42;;;;;;;7.70;65.12;100030.16;1777303;80;21465;-78
2021/04/26 07:26:36;;;;;;;5.92;2.80;;;;;;;9.03;58.34;100025.85;1826962;77;28275;-72
2021/04/26 07:29:18;;;;;;;5.35;3.10;;;;;;;9.25;58.22;100026.02;1841888;76;28245;-73
2021/04/26 07:31:46;;;;;;;5.20;2.47;;;;;;;9.54;57.12;100020.22;1749081;81;21682;-74
2021/04/26 07:34:14;;;;;;;4.60;2.45;;;;;;;9.86;56.57;100020.41;1764881;81;21259;-73
2021/04/26 07:36:42;;;;;;;7.42;2.90;;;;;;;10.13;55.83;100014.60;1778649;80;21971;-75
2021/04/26 07:39:19;;;;;;;6.53;2.02;;;;;;;10.62;51.94;100014.54;1750316;79;21612;-75
2021/04/26 07:41:53;;;;;;;4.03;2.40;;;;;;;11.20;50.02;100013.97;1750038;81;21196;-74
2021/04/26 07:44:29;;;;;;;8.45;2.27;;;;;;;11.81;50.35;100019.28;1745370;81;21194;-75
2021/04/26 07:47:05;;;;;;;5.50;2.20;;;;;;;12.11;45.93;100017.09;1766775;80;21555;-76
2021/04/26 07:49:39;;;;;;;4.40;2.40;;;;;;;11.94;47.51;100018.33;1757152;80;21195;-75
2021/04/26 07:52:10;;;;;;;6.90;2.00;;;;;;;11.89;47.07;100018.53;1791087;79;21131;-76
2021/04/26 07:54:43;;;;;;;3.45;1.98;;;;;;;11.95;43.31;100004.19;1783203;77;21163;-76
2021/04/26 07:57:13;;;;;;;3.95;2.05;;;;;;;11.80;43.42;100012.30;1805120;79;21165;-75
2021/04/26 07:59:44;;;;;;;4.73;1.80;;;;;;;11.52;42.32;100004.23;1814248;79;22286;-75
2021/04/26 08:02:14;;;;;;;4.42;2.37;;;;;;;11.57;40.85;100007.14;1814622;79;25730;-76
2021/04/26 08:04:45;;;;;;;2.58;1.70;;;;;;;11.88;40.40;99998.80;1809198;77;21829;-75
2021/04/26 08:07:16;;;;;;;3.30;1.80;;;;;;;12.35;39.63;99986.08;1786960;79;21186;-75
2021/04/26 08:09:52;;;;;;;3.42;2.02;;;;;;;13.05;42.22;99990.22;1790661;79;21179;-75
2021/04/26 08:12:20;;;;;;;4.03;2.20;;;;;;;13.48;40.89;99992.06;1783611;80;21199;-75
2021/04/26 08:14:58;;;;;;;8.03;2.50;;;;;;;13.73;37.90;99989.45;1793019;79;21174;-75
2021/04/26 08:17:29;;;;;;;3.62;1.80;;;;;;;13.48;40.19;99996.48;1785347;79;21139;-76
2021/04/26 08:20:04;;;;;;;7.42;1.85;;;;;;;13.07;42.07;99987.03;1783401;80;21613;-75
2021/04/26 08:22:33;;;;;;;5.05;1.98;;;;;;;12.54;41.52;99993.14;1779849;80;21154;-76
2021/04/26 08:25:05;;;;;;;4.72;2.02;;;;;;;12.00;41.76;100000.02;1777536;80;21659;-75
2021/04/26 08:27:37;;;;;;;;;;;;;;;11.52;40.68;100007.34;1777073;80;21290;-75
2021/04/26 08:30:14;;;;;;;3.05;1.77;;;;;;;11.08;42.20;99992.47;1780804;80;20540;-75
2021/04/26 08:32:45;;;;;;;4.42;1.70;;;;;;;10.60;39.68;100000.11;1773442;78;21173;-75
2021/04/26 08:35:20;;;;;;;8.85;1.90;;;;;;;10.27;40.77;99993.03;1763225;78;21160;-76
2021/04/26 08:37:57;;;;;;;6.37;2.05;;;;;;;10.09;41.65;99999.84;1766987;80;21131;-75
2021/04/26 08:40:29;;;;;;;4.03;1.70;;;;;;;9.99;40.93;99999.79;1786303;80;21163;-81
2021/04/26 08:43:10;;;;;;;2.20;1.60;;;;;;;9.84;42.06;100005.13;1777613;78;21207;-75
2021/04/26 08:45:40;;;;;;;2.85;1.80;;;;;;;9.67;39.99;100000.48;1750940;80;21223;-75
2021/04/26 08:48:11;;;;;;;7.37;1.82;;;;;;;9.58;40.57;100007.38;1762472;80;21204;-74
2021/04/26 08:50:43;;;;;;;5.08;2.20;;;;;;;9.54;40.38;99997.88;1775546;78;21573;-74
2021/04/26 08:53:14;;;;;;;4.78;2.17;;;;;;;9.51;40.40;99998.00;1775498;80;21781;-75
2021/04/26 08:55:46;;;;;;;22.62;10.75;;;;;;;9.67;40.30;99982.08;1768202;80;21258;-74
2021/04/26 08:58:17;;;;;;;;;;;;;;;10.34;39.46;99997.64;1775663;78;21251;-74
2021/04/26 09:00:49;;;;;;;8.30;2.52;;;;;;;11.00;38.35;99984.04;1761595;80;20732;-74
2021/04/26 09:03:19;;;;;;;3.00;1.75;;;;;;;11.67;34.23;99992.66;1754199;80;22128;-74
2021/04/26 09:05:52;;;;;;;6.05;1.98;;;;;;;12.23;33.50;99989.27;1732177;81;21247;-75
2021/04/26 09:08:23;;;;;;;4.65;2.25;;;;;;;12.56;32.65;99988.61;1741246;80;21220;-75
2021/04/26 09:11:03;;;;;;;2.20;1.52;;;;;;;12.67;33.14;99986.31;1773765;80;21241;-75
2021/04/26 09:16:26;;;;;;;1.75;1.37;;;;;;;12.96;32.78;99980.09;1822216;76;29443;-75
2021/04/26 09:19:20;;;;;;;3.12;1.57;;;;;;;12.96;30.69;99978.78;1804053;77;21115;-75
2021/04/26 09:21:51;;;;;;;3.58;1.10;;;;;;;12.80;30.66;99982.63;1825681;78;22186;-74
2021/04/26 09:24:28;;;;;;;1.92;1.25;;;;;;;12.62;29.75;99992.77;1836825;77;21380;-74
2021/04/26 09:27:24;;;;;;;7.62;2.00;;;;;;;12.39;30.62;99979.70;1820458;78;21585;-74
2021/04/26 09:29:54;;;;;;;3.45;1.70;;;;;;;12.32;32.04;99981.39;1802431;79;21202;-74
2021/04/26 09:32:24;;;;;;;3.93;1.97;;;;;;;12.31;31.86;99973.94;1794354;78;21230;-76
2021/04/26 09:34:56;;;;;;;2.25;1.35;;;;;;;12.29;31.14;99986.83;1804092;79;21427;-76
2021/04/26 09:37:29;;;;;;;3.45;1.25;;;;;;;12.13;32.47;99988.84;1811246;79;21174;-80
2021/04/26 09:40:11;;;;;;;4.37;1.50;;;;;;;11.91;30.94;99992.89;1796568;79;21206;-83
2021/04/26 09:42:57;;;;;;;3.83;1.50;;;;;;;11.55;28.26;99993.58;1725372;81;21319;-76
2021/04/26 09:45:37;;;;;;;7.50;1.70;;;;;;;11.28;29.25;99996.92;1771706;79;21215;-77
2021/04/26 09:48:30;;;;;;;6.42;1.10;;;;;;;11.09;30.60;99996.84;1768310;80;21376;-76
2021/04/26 09:51:03;;;;;;;16.70;2.52;;;;;;;10.92;31.37;99990.92;1772258;80;21203;-76
2021/04/26 09:53:42;;;;;;;4.78;1.37;;;;;;;10.75;31.37;99993.86;1735553;81;21168;-77
2021/04/26 09:56:24;;;;;;;4.92;1.27;;;;;;;10.51;32.23;99999.15;1728606;82;21699;-74
2021/04/26 09:58:55;;;;;;;6.20;1.30;;;;;;;10.32;32.86;99995.52;1724211;81;21373;-74
2021/04/26 10:01:26;;;;;;;4.17;1.40;;;;;;;10.17;33.34;100000.42;1728490;82;21367;-75
2021/04/26 10:03:58;;;;;;;9.98;1.87;;;;;;;10.04;32.36;100005.27;1776374;80;21202;-75
2021/04/26 10:06:29;;;;;;;3.10;1.10;;;;;;;9.92;32.28;99999.62;1774575;80;21206;-74
2021/04/26 10:09:21;;;;;;;2.70;1.55;;;;;;;9.80;32.12;99993.88;1725948;81;21858;-74
2021/04/26 10:11:52;;;;;;;4.75;1.30;;;;;;;9.76;31.48;100000.16;1679590;83;21209;-75
2021/04/26 10:14:22;;;;;;;5.15;1.82;;;;;;;9.84;32.29;99998.09;1716283;82;21378;-74
2021/04/26 10:17:02;;;;;;;3.92;1.30;;;;;;;9.99;31.99;100006.36;1729734;80;21197;-75
2021/04/26 10:19:41;;;;;;;1.40;1.20;;;;;;;10.13;31.19;99999.28;1723350;82;21760;-73
2021/04/26 10:22:12;;;;;;;4.42;1.25;;;;;;;10.27;32.19;99988.62;1698974;83;21705;-74
2021/04/26 10:24:56;;;;;;;1.62;1.17;;;;;;;10.46;30.73;99994.53;1711887;82;21178;-74
2021/04/26 10:27:37;;;;;;;10.03;1.70;;;;;;;10.74;31.19;99990.81;1703810;82;21703;-74
2021/04/26 10:30:11;;;;;;;5.50;1.22;;;;;;;11.27;31.49;99989.06;1735510;80;21182;-74
2021/04/26 10:32:58;;;;;;;2.02;1.20;;;;;;;11.61;31.29;99987.63;1713238;82;21199;-75
2021/04/26 10:36:06;;;;;;;1.77;1.00;;;;;;;11.93;31.71;99985.77;1706389;83;21192;-74
2021/04/26 10:38:46;;;;;;;2.15;1.17;;;;;;;12.08;30.96;99983.39;1689187;84;21158;-75
2021/04/26 10:42:08;;;;;;;1.85;1.02;;;;;;;12.24;28.12;99988.80;1714966;83;21285;-74
2021/04/26 10:45:07;;;;;;;3.00;1.02;;;;;;;12.49;27.85;99985.87;1717464;82;21632;-75
2021/04/26 10:47:37;;;;;;;8.83;1.60;;;;;;;13.15;26.68;99980.88;1718049;82;21213;-75
2021/04/26 10:50:15;;;;;;;1.77;1.05;;;;;;;13.60;27.22;99963.64;1721403;82;21229;-74
2021/04/26 10:52:49;;;;;;;2.50;1.10;;;;;;;13.97;25.97;99956.88;1719197;82;21130;-74
2021/04/26 10:55:25;;;;;;;5.40;1.22;;;;;;;13.91;24.88;99969.95;1727185;82;21393;-74
2021/04/26 10:57:58;;;;;;;2.25;0.90;;;;;;;13.56;25.90;99973.98;1730492;82;21201;-74
2021/04/26 11:00:38;;;;;;;5.15;1.60;;;;;;;13.22;27.50;99980.95;1699109;82;21268;-74
2021/04/26 11:03:14;;;;;;;3.65;1.27;;;;;;;13.02;29.42;99975.81;1664379;84;21279;-74
2021/04/26 11:05:44;;;;;;;3.35;1.20;;;;;;;13.09;29.12;99986.50;1697160;83;21492;-74
2021/04/26 11:08:36;;;;;;;3.22;1.20;;;;;;;13.26;30.26;99983.47;1666798;84;21245;-74
2021/04/26 11:13:57;;;;;;;1.22;0.90;;;;;;;13.17;27.20;99989.59;1696701;83;21243;-75
2021/04/26 11:16:44;;;;;;;;;;;;;;;12.92;26.76;99990.42;1677841;83;21254;-74
2021/04/26 11:19:15;;;;;;;3.77;1.10;;;;;;;12.71;27.48;99989.21;1701706;82;20487;-75
2021/04/26 11:24:49;;;;;;;14.00;1.40;;;;;;;12.03;28.12;99987.56;1775277;79;21190;-76
2021/04/26 11:27:21;;;;;;;1.57;1.10;;;;;;;11.67;28.39;99986.06;1777963;79;21178;-75
2021/04/26 11:32:43;;;;;;;5.25;1.00;;;;;;;11.32;29.16;100004.26;1667925;84;21222;-76
2021/04/26 11:35:16;;;;;;;3.20;1.30;;;;;;;11.04;29.52;100001.45;1651067;85;21826;-77
2021/04/26 11:37:46;;;;;;;2.30;1.10;;;;;;;10.78;30.62;100013.02;1697999;83;21179;-75
2021/04/26 11:43:33;;;;;;;2.50;1.20;;;;;;;10.63;32.36;100018.45;1785117;79;21197;-75
2021/04/26 11:46:07;;;;;;;3.33;1.25;;;;;;;10.42;32.66;100016.19;1743206;80;21190;-84
2021/04/26 11:48:39;;;;;;;1.55;1.00;;;;;;;10.39;32.13;100012.80;1790954;79;22597;-78
2021/04/26 11:51:09;;;;;;;7.85;1.75;;;;;;;10.38;33.20;100011.95;1757525;80;21166;-78
2021/04/26 11:53:39;;;;;;;1.57;1.10;;;;;;;10.51;31.69;100013.63;1768385;80;21239;-77
2021/04/26 11:56:13;;;;;;;2.72;1.20;;;;;;;10.59;31.77;100012.04;1739873;82;21201;-74
2021/04/26 11:58:42;;;;;;;4.28;1.20;;;;;;;10.61;31.27;100005.79;1789661;79;21229;-77
2021/04/26 12:01:14;;;;;;;4.35;1.30;;;;;;;10.69;33.18;99999.75;1788808;79;21650;-77
2021/04/26 12:03:54;;;;;;;2.05;1.20;;;;;;;10.89;33.39;99999.42;1793347;79;21194;-77
2021/04/26 12:06:24;;;;;;;2.12;1.00;;;;;;;11.05;32.17;99987.80;1787835;79;21182;-76
2021/04/26 12:08:53;;;;;;;3.35;0.90;;;;;;;11.20;32.57;99990.25;1762771;80;21177;-77
2021/04/26 12:11:23;;;;;;;2.05;1.15;;;;;;;11.45;31.37;99980.38;1787652;79;21329;-77
2021/04/26 12:14:10;;;;;;;1.57;1.30;;;;;;;11.74;28.82;99975.63;1794136;79;22149;-77
2021/04/26 12:16:39;;;;;;;1.80;1.10;;;;;;;11.82;27.97;99965.57;1709164;82;21222;-77
2021/04/26 12:19:07;;;;;;;1.25;1.00;;;;;;;11.75;27.64;99969.41;1752448;81;21703;-78
2021/04/26 12:21:35;;;;;;;2.37;1.00;;;;;;;11.83;27.82;99972.58;1754850;81;21178;-77
2021/04/26 12:24:05;;;;;;;2.30;1.15;;;;;;;12.09;28.14;99965.30;1757426;81;21163;-78
2021/04/26 12:26:34;;;;;;;2.37;1.22;;;;;;;12.31;27.39;99956.78;1762497;81;21378;-78
2021/04/26 12:29:03;;;;;;;5.35;1.30;;;;;;;12.53;28.43;99948.67;1756625;81;22198;-78
2021/04/26 12:31:31;;;;;;;1.85;1.17;;;;;;;12.71;29.23;99939.00;1758352;81;21138;-79